createdAt,value
2018-05-31T00:00:06.194Z,3.218688
2018-05-31T00:00:18.786Z,6.437376
2018-05-31T00:00:31.313Z,6.437376
2018-05-31T00:00:43.897Z,6.437376
2018-05-31T00:00:56.495Z,6.437376
2018-05-31T00:01:11.116Z,1.609344
2018-05-31T00:01:23.632Z,1.609344
2018-05-31T00:01:36.191Z,3.218688
2018-05-31T00:01:48.699Z,3.218688
2018-05-31T00:02:01.236Z,8.04672
2018-05-31T00:02:15.803Z,11.265408
2018-05-31T00:02:28.384Z,11.265408
2018-05-31T00:02:41.157Z,11.265408
2018-05-31T00:02:53.723Z,11.265408
2018-05-31T00:03:06.259Z,3.218688
2018-05-31T00:03:20.691Z,6.437376
2018-05-31T00:03:33.241Z,6.437376
2018-05-31T00:03:45.754Z,6.437376
2018-05-31T00:03:58.292Z,6.437376
2018-05-31T00:04:10.821Z,3.218688
2018-05-31T00:04:24.691Z,3.218688
2018-05-31T00:04:37.871Z,3.218688
2018-05-31T00:04:50.395Z,3.218688
2018-05-31T00:05:02.937Z,3.218688
2018-05-31T00:05:15.499Z,1.609344
2018-05-31T00:05:28.016Z,1.609344
2018-05-31T00:05:42.398Z,1.609344
2018-05-31T00:05:54.909Z,4.828032
2018-05-31T00:06:07.452Z,3.218688
2018-05-31T00:06:19.990Z,3.218688
2018-05-31T00:06:32.514Z,4.828032
2018-05-31T00:06:46.959Z,4.828032
2018-05-31T00:06:59.497Z,4.828032
2018-05-31T00:07:12.045Z,3.218688
2018-05-31T00:07:24.571Z,3.218688
2018-05-31T00:07:37.298Z,6.437376
2018-05-31T00:07:51.911Z,8.04672
2018-05-31T00:08:04.465Z,3.218688
2018-05-31T00:08:17.095Z,3.218688
2018-05-31T00:08:29.633Z,8.04672
2018-05-31T00:08:42.179Z,8.04672
2018-05-31T00:08:56.396Z,8.04672
2018-05-31T00:09:09.169Z,9.656064
2018-05-31T00:09:21.688Z,9.656064
2018-05-31T00:09:34.233Z,9.656064
2018-05-31T00:09:46.812Z,9.656064
2018-05-31T00:09:59.940Z,9.656064
2018-05-31T00:10:14.000Z,1.609344
2018-05-31T00:10:26.586Z,1.609344
2018-05-31T00:10:39.145Z,3.218688
2018-05-31T00:10:51.672Z,6.437376
2018-05-31T00:11:04.203Z,3.218688
2018-05-31T00:11:18.579Z,3.218688
2018-05-31T00:11:31.126Z,3.218688
2018-05-31T00:11:43.712Z,4.828032
2018-05-31T00:11:56.277Z,4.828032
2018-05-31T00:12:08.851Z,3.218688
2018-05-31T00:12:22.959Z,3.218688
2018-05-31T00:12:35.500Z,4.828032
2018-05-31T00:12:48.103Z,4.828032
2018-05-31T00:13:00.635Z,4.828032
2018-05-31T00:13:13.187Z,3.218688
2018-05-31T00:13:27.225Z,3.218688
2018-05-31T00:13:39.782Z,6.437376
2018-05-31T00:13:52.316Z,6.437376
2018-05-31T00:14:04.935Z,8.04672
2018-05-31T00:14:17.490Z,9.656064
2018-05-31T00:14:31.282Z,9.656064
2018-05-31T00:14:44.640Z,9.656064
2018-05-31T00:14:57.188Z,9.656064
2018-05-31T00:15:09.727Z,3.218688
2018-05-31T00:15:22.281Z,3.218688
2018-05-31T00:15:34.813Z,6.437376
2018-05-31T00:15:49.419Z,6.437376
2018-05-31T00:16:01.979Z,6.437376
2018-05-31T00:16:14.525Z,1.609344
2018-05-31T00:16:27.051Z,6.437376
2018-05-31T00:16:39.605Z,6.437376
2018-05-31T00:16:54.005Z,9.656064
2018-05-31T00:17:06.584Z,8.04672
2018-05-31T00:17:19.134Z,8.04672
2018-05-31T00:17:31.657Z,8.04672
2018-05-31T00:17:44.245Z,8.04672
2018-05-31T00:17:58.679Z,8.04672
2018-05-31T00:18:11.359Z,6.437376
2018-05-31T00:18:23.925Z,8.04672
2018-05-31T00:18:36.472Z,8.04672
2018-05-31T00:18:49.036Z,8.04672
2018-05-31T00:19:03.266Z,8.04672
2018-05-31T00:19:15.966Z,3.218688
2018-05-31T00:19:28.558Z,3.218688
2018-05-31T00:19:41.105Z,3.218688
2018-05-31T00:19:53.624Z,4.828032
2018-05-31T00:20:06.876Z,3.218688
2018-05-31T00:20:20.794Z,3.218688
2018-05-31T00:20:33.314Z,3.218688
2018-05-31T00:20:45.879Z,3.218688
2018-05-31T00:20:58.439Z,3.218688
2018-05-31T00:21:11.028Z,6.437376
2018-05-31T00:21:25.376Z,6.437376
2018-05-31T00:21:37.916Z,6.437376
2018-05-31T00:21:50.505Z,6.437376
2018-05-31T00:22:03.077Z,6.437376
2018-05-31T00:22:15.609Z,1.609344
2018-05-31T00:22:30.157Z,1.609344
2018-05-31T00:22:42.682Z,1.609344
2018-05-31T00:22:55.244Z,8.04672
2018-05-31T00:23:07.747Z,6.437376
2018-05-31T00:23:20.282Z,8.04672
2018-05-31T00:23:34.822Z,8.04672
2018-05-31T00:23:47.330Z,8.04672
2018-05-31T00:23:59.851Z,8.04672
2018-05-31T00:24:12.444Z,3.218688
2018-05-31T00:24:25.001Z,3.218688
2018-05-31T00:24:39.091Z,3.218688
2018-05-31T00:24:52.088Z,3.218688
2018-05-31T00:25:04.819Z,6.437376
2018-05-31T00:25:18.109Z,6.437376
2018-05-31T00:25:30.835Z,6.437376
2018-05-31T00:25:43.809Z,6.437376
2018-05-31T00:25:57.699Z,6.437376
2018-05-31T00:26:10.319Z,1.609344
2018-05-31T00:26:22.868Z,1.609344
2018-05-31T00:26:35.393Z,3.218688
2018-05-31T00:26:47.910Z,6.437376
2018-05-31T00:27:02.448Z,6.437376
2018-05-31T00:27:14.996Z,3.218688
2018-05-31T00:27:27.491Z,3.218688
2018-05-31T00:27:40.035Z,3.218688
2018-05-31T00:27:52.622Z,8.04672
2018-05-31T00:28:06.861Z,6.437376
2018-05-31T00:28:19.572Z,6.437376
2018-05-31T00:28:32.101Z,6.437376
2018-05-31T00:28:44.654Z,6.437376
2018-05-31T00:28:57.176Z,6.437376
2018-05-31T00:29:11.709Z,0
2018-05-31T00:29:24.214Z,0
2018-05-31T00:29:36.725Z,1.609344
2018-05-31T00:29:49.300Z,3.218688
2018-05-31T00:30:01.821Z,3.218688
2018-05-31T00:30:16.099Z,0
2018-05-31T00:30:28.995Z,0
2018-05-31T00:30:41.516Z,1.609344
2018-05-31T00:30:54.036Z,1.609344
2018-05-31T00:31:06.580Z,1.609344
2018-05-31T00:31:19.145Z,1.609344
2018-05-31T00:31:33.463Z,1.609344
2018-05-31T00:31:46.010Z,1.609344
2018-05-31T00:31:58.537Z,3.218688
2018-05-31T00:32:11.114Z,3.218688
2018-05-31T00:32:23.689Z,8.04672
2018-05-31T00:32:38.004Z,8.04672
2018-05-31T00:32:50.546Z,8.04672
2018-05-31T00:33:03.121Z,8.04672
2018-05-31T00:33:15.714Z,6.437376
2018-05-31T00:33:28.275Z,6.437376
2018-05-31T00:33:42.396Z,6.437376
2018-05-31T00:33:54.944Z,6.437376
2018-05-31T00:34:07.494Z,1.609344
2018-05-31T00:34:20.089Z,1.609344
2018-05-31T00:34:32.635Z,1.609344
2018-05-31T00:34:47.288Z,3.218688
2018-05-31T00:34:59.818Z,9.656064
2018-05-31T00:35:12.573Z,6.437376
2018-05-31T00:35:25.108Z,6.437376
2018-05-31T00:35:37.653Z,8.04672
2018-05-31T00:35:51.250Z,8.04672
2018-05-31T00:36:04.601Z,3.218688
2018-05-31T00:36:17.124Z,6.437376
2018-05-31T00:36:29.663Z,6.437376
2018-05-31T00:36:42.217Z,6.437376
2018-05-31T00:36:54.764Z,6.437376
2018-05-31T00:37:09.225Z,0
2018-05-31T00:37:21.712Z,1.609344
2018-05-31T00:37:34.271Z,1.609344
2018-05-31T00:37:46.817Z,1.609344
2018-05-31T00:37:59.348Z,1.609344
2018-05-31T00:38:13.844Z,1.609344
2018-05-31T00:38:26.386Z,3.218688
2018-05-31T00:38:38.878Z,4.828032
2018-05-31T00:38:51.418Z,4.828032
2018-05-31T00:39:03.931Z,3.218688
2018-05-31T00:39:18.488Z,3.218688
2018-05-31T00:39:31.104Z,3.218688
2018-05-31T00:39:43.619Z,3.218688
2018-05-31T00:39:56.180Z,3.218688
2018-05-31T00:40:08.738Z,0
2018-05-31T00:40:22.836Z,1.609344
2018-05-31T00:40:35.488Z,1.609344
2018-05-31T00:40:48.060Z,1.609344
2018-05-31T00:41:00.608Z,1.609344
2018-05-31T00:41:13.255Z,0
2018-05-31T00:41:26.362Z,1.609344
2018-05-31T00:41:40.205Z,3.218688
2018-05-31T00:41:52.945Z,3.218688
2018-05-31T00:42:05.522Z,6.437376
2018-05-31T00:42:18.063Z,6.437376
2018-05-31T00:42:30.568Z,6.437376
2018-05-31T00:42:44.816Z,6.437376
2018-05-31T00:42:57.328Z,6.437376
2018-05-31T00:43:09.883Z,3.218688
2018-05-31T00:43:22.460Z,3.218688
2018-05-31T00:43:35.000Z,3.218688
2018-05-31T00:43:49.216Z,3.218688
2018-05-31T00:44:01.741Z,4.828032
2018-05-31T00:44:14.254Z,3.218688
2018-05-31T00:44:26.783Z,3.218688
2018-05-31T00:44:39.353Z,3.218688
2018-05-31T00:44:53.918Z,3.218688
2018-05-31T00:45:06.498Z,1.609344
2018-05-31T00:45:19.022Z,1.609344
2018-05-31T00:45:31.566Z,1.609344
2018-05-31T00:45:44.137Z,3.218688
2018-05-31T00:45:58.104Z,3.218688
2018-05-31T00:46:10.916Z,1.609344
2018-05-31T00:46:23.429Z,1.609344
2018-05-31T00:46:35.952Z,1.609344
2018-05-31T00:46:48.514Z,1.609344
2018-05-31T00:47:01.109Z,1.609344
2018-05-31T00:47:15.860Z,1.609344
2018-05-31T00:47:28.405Z,1.609344
2018-05-31T00:47:40.916Z,1.609344
2018-05-31T00:47:53.408Z,1.609344
2018-05-31T00:48:05.948Z,1.609344
2018-05-31T00:48:20.307Z,1.609344
2018-05-31T00:48:32.963Z,1.609344
2018-05-31T00:48:45.520Z,1.609344
2018-05-31T00:48:58.052Z,1.609344
2018-05-31T00:49:10.598Z,3.218688
2018-05-31T00:49:26.784Z,3.218688
2018-05-31T00:49:39.285Z,3.218688
2018-05-31T00:49:51.803Z,3.218688
2018-05-31T00:50:04.361Z,3.218688
2018-05-31T00:50:16.891Z,3.218688
2018-05-31T00:50:31.361Z,3.218688
2018-05-31T00:50:43.873Z,3.218688
2018-05-31T00:50:56.410Z,3.218688
2018-05-31T00:51:08.906Z,3.218688
2018-05-31T00:51:21.520Z,4.828032
2018-05-31T00:51:36.020Z,4.828032
2018-05-31T00:51:48.574Z,4.828032
2018-05-31T00:52:01.114Z,4.828032
2018-05-31T00:52:13.649Z,6.437376
2018-05-31T00:52:26.187Z,6.437376
2018-05-31T00:52:39.225Z,6.437376
2018-05-31T00:52:53.054Z,6.437376
2018-05-31T00:53:05.602Z,1.609344
2018-05-31T00:53:18.133Z,1.609344
2018-05-31T00:53:30.663Z,4.828032
2018-05-31T00:53:43.205Z,4.828032
2018-05-31T00:53:57.543Z,4.828032
2018-05-31T00:54:10.083Z,1.609344
2018-05-31T00:54:22.587Z,1.609344
2018-05-31T00:54:35.129Z,1.609344
2018-05-31T00:54:47.680Z,1.609344
2018-05-31T00:55:01.889Z,3.218688
2018-05-31T00:55:14.502Z,3.218688
2018-05-31T00:55:27.022Z,3.218688
2018-05-31T00:55:39.538Z,3.218688
2018-05-31T00:55:52.027Z,3.218688
2018-05-31T00:56:06.599Z,6.437376
2018-05-31T00:56:19.152Z,6.437376
2018-05-31T00:56:31.700Z,6.437376
2018-05-31T00:56:44.219Z,6.437376
2018-05-31T00:56:56.759Z,6.437376
2018-05-31T00:57:10.301Z,3.218688
2018-05-31T00:57:23.724Z,3.218688
2018-05-31T00:57:36.242Z,3.218688
2018-05-31T00:57:48.801Z,3.218688
2018-05-31T00:58:01.307Z,3.218688
2018-05-31T00:58:13.906Z,1.609344
2018-05-31T00:58:28.528Z,1.609344
2018-05-31T00:58:41.057Z,1.609344
2018-05-31T00:58:53.674Z,1.609344
2018-05-31T00:59:06.239Z,1.609344
2018-05-31T00:59:18.770Z,1.609344
2018-05-31T00:59:32.827Z,3.218688
2018-05-31T00:59:45.348Z,3.218688
2018-05-31T00:59:57.875Z,3.218688
2018-05-31T01:00:10.470Z,1.609344
2018-05-31T01:00:22.997Z,1.609344
2018-05-31T01:00:37.566Z,3.218688
2018-05-31T01:00:50.103Z,3.218688
2018-05-31T01:01:02.677Z,3.218688
2018-05-31T01:01:15.238Z,1.609344
2018-05-31T01:01:27.807Z,1.609344
2018-05-31T01:01:41.734Z,1.609344
2018-05-31T01:01:54.381Z,1.609344
2018-05-31T01:02:06.931Z,1.609344
2018-05-31T01:02:19.487Z,1.609344
2018-05-31T01:02:32.041Z,1.609344
2018-05-31T01:02:44.961Z,1.609344
2018-05-31T01:02:59.029Z,1.609344
2018-05-31T01:03:11.593Z,3.218688
2018-05-31T01:03:24.097Z,3.218688
2018-05-31T01:03:36.605Z,3.218688
2018-05-31T01:03:49.150Z,3.218688
2018-05-31T01:04:03.575Z,3.218688
2018-05-31T01:04:16.117Z,3.218688
2018-05-31T01:04:28.674Z,3.218688
2018-05-31T01:04:41.235Z,3.218688
2018-05-31T01:04:53.806Z,6.437376
2018-05-31T01:05:08.378Z,1.609344
2018-05-31T01:05:20.888Z,3.218688
2018-05-31T01:05:33.460Z,3.218688
2018-05-31T01:05:46.061Z,3.218688
2018-05-31T01:05:58.622Z,3.218688
2018-05-31T01:06:13.244Z,3.218688
2018-05-31T01:06:25.759Z,3.218688
2018-05-31T01:06:38.292Z,3.218688
2018-05-31T01:06:50.858Z,3.218688
2018-05-31T01:07:03.360Z,3.218688
2018-05-31T01:07:16.922Z,1.609344
2018-05-31T01:07:30.084Z,1.609344
2018-05-31T01:07:42.632Z,1.609344
2018-05-31T01:07:55.488Z,3.218688
2018-05-31T01:08:08.047Z,1.609344
2018-05-31T01:08:20.654Z,1.609344
2018-05-31T01:08:35.161Z,1.609344
2018-05-31T01:08:47.699Z,6.437376
2018-05-31T01:09:00.218Z,8.04672
2018-05-31T01:09:12.770Z,6.437376
2018-05-31T01:09:25.339Z,6.437376
2018-05-31T01:09:39.736Z,6.437376
2018-05-31T01:09:52.325Z,6.437376
2018-05-31T01:10:04.872Z,1.609344
2018-05-31T01:10:17.367Z,3.218688
2018-05-31T01:10:29.913Z,3.218688
2018-05-31T01:10:44.450Z,3.218688
2018-05-31T01:10:56.961Z,3.218688
2018-05-31T01:11:09.525Z,3.218688
2018-05-31T01:11:22.059Z,3.218688
2018-05-31T01:11:34.614Z,3.218688
2018-05-31T01:11:48.699Z,3.218688
2018-05-31T01:12:01.915Z,4.828032
2018-05-31T01:12:14.492Z,6.437376
2018-05-31T01:12:27.041Z,6.437376
2018-05-31T01:12:39.578Z,6.437376
2018-05-31T01:12:53.489Z,6.437376
2018-05-31T01:13:06.596Z,1.609344
2018-05-31T01:13:19.150Z,3.218688
2018-05-31T01:13:31.723Z,3.218688
2018-05-31T01:13:44.291Z,3.218688
2018-05-31T01:13:56.831Z,3.218688
2018-05-31T01:14:11.201Z,1.609344
2018-05-31T01:14:23.699Z,1.609344
2018-05-31T01:14:36.239Z,1.609344
2018-05-31T01:14:48.767Z,1.609344
2018-05-31T01:15:01.280Z,1.609344
2018-05-31T01:15:15.888Z,1.609344
2018-05-31T01:15:28.412Z,3.218688
2018-05-31T01:15:40.942Z,6.437376
2018-05-31T01:15:53.477Z,6.437376
2018-05-31T01:16:06.027Z,1.609344
2018-05-31T01:16:20.457Z,3.218688
2018-05-31T01:16:33.189Z,3.218688
2018-05-31T01:16:45.786Z,3.218688
2018-05-31T01:16:58.370Z,3.218688
2018-05-31T01:17:10.926Z,1.609344
2018-05-31T01:17:25.064Z,1.609344
2018-05-31T01:17:37.575Z,8.04672
2018-05-31T01:17:50.141Z,8.04672
2018-05-31T01:18:02.671Z,8.04672
2018-05-31T01:18:15.377Z,1.609344
2018-05-31T01:18:28.463Z,1.609344
2018-05-31T01:18:42.258Z,3.218688
2018-05-31T01:18:54.762Z,3.218688
2018-05-31T01:19:07.313Z,1.609344
2018-05-31T01:19:19.850Z,1.609344
2018-05-31T01:19:32.462Z,1.609344
2018-05-31T01:19:46.832Z,1.609344
2018-05-31T01:19:59.439Z,3.218688
2018-05-31T01:20:11.979Z,1.609344
2018-05-31T01:20:24.506Z,1.609344
2018-05-31T01:20:37.246Z,1.609344
2018-05-31T01:20:51.993Z,3.218688
2018-05-31T01:21:04.559Z,1.609344
2018-05-31T01:21:17.069Z,3.218688
2018-05-31T01:21:29.587Z,6.437376
2018-05-31T01:21:42.097Z,6.437376
2018-05-31T01:21:56.662Z,6.437376
2018-05-31T01:22:09.282Z,6.437376
2018-05-31T01:22:21.860Z,6.437376
2018-05-31T01:22:34.408Z,6.437376
2018-05-31T01:22:46.937Z,6.437376
2018-05-31T01:23:01.587Z,6.437376
2018-05-31T01:23:14.117Z,1.609344
2018-05-31T01:23:26.658Z,1.609344
2018-05-31T01:23:39.204Z,1.609344
2018-05-31T01:23:51.769Z,1.609344
2018-05-31T01:24:04.810Z,0
2018-05-31T01:24:18.553Z,0
2018-05-31T01:24:31.067Z,0
2018-05-31T01:24:43.562Z,0
2018-05-31T01:24:56.110Z,0
2018-05-31T01:25:08.661Z,0
2018-05-31T01:25:23.209Z,0
2018-05-31T01:25:35.871Z,0
2018-05-31T01:25:48.389Z,0
2018-05-31T01:26:00.938Z,1.609344
2018-05-31T01:26:13.492Z,3.218688
2018-05-31T01:26:27.686Z,3.218688
2018-05-31T01:26:40.241Z,3.218688
2018-05-31T01:26:52.772Z,3.218688
2018-05-31T01:27:05.309Z,1.609344
2018-05-31T01:27:17.853Z,3.218688
2018-05-31T01:27:32.640Z,3.218688
2018-05-31T01:27:45.261Z,3.218688
2018-05-31T01:27:57.775Z,3.218688
2018-05-31T01:28:10.325Z,4.828032
2018-05-31T01:28:22.858Z,6.437376
2018-05-31T01:28:36.847Z,8.04672
2018-05-31T01:28:49.671Z,8.04672
2018-05-31T01:29:02.229Z,8.04672
2018-05-31T01:29:14.812Z,4.828032
2018-05-31T01:29:27.347Z,6.437376
2018-05-31T01:29:39.857Z,8.04672
2018-05-31T01:29:54.122Z,8.04672
2018-05-31T01:30:06.664Z,6.437376
2018-05-31T01:30:19.212Z,6.437376
2018-05-31T01:30:31.741Z,6.437376
2018-05-31T01:30:44.336Z,6.437376
2018-05-31T01:30:58.657Z,6.437376
2018-05-31T01:31:11.239Z,1.609344
2018-05-31T01:31:23.952Z,3.218688
2018-05-31T01:31:36.512Z,3.218688
2018-05-31T01:31:49.077Z,3.218688
2018-05-31T01:32:03.644Z,3.218688
2018-05-31T01:32:16.653Z,3.218688
2018-05-31T01:32:29.165Z,3.218688
2018-05-31T01:32:41.687Z,3.218688
2018-05-31T01:32:54.221Z,3.218688
2018-05-31T01:33:08.894Z,1.609344
2018-05-31T01:33:21.445Z,1.609344
2018-05-31T01:33:33.975Z,1.609344
2018-05-31T01:33:46.496Z,3.218688
2018-05-31T01:33:59.051Z,4.828032
2018-05-31T01:34:12.495Z,3.218688
2018-05-31T01:34:25.749Z,3.218688
2018-05-31T01:34:38.229Z,3.218688
2018-05-31T01:34:50.787Z,4.828032
2018-05-31T01:35:03.463Z,6.437376
2018-05-31T01:35:15.970Z,3.218688
2018-05-31T01:35:30.462Z,4.828032
2018-05-31T01:35:42.995Z,4.828032
2018-05-31T01:35:55.528Z,4.828032
2018-05-31T01:36:08.080Z,3.218688
2018-05-31T01:36:20.624Z,8.04672
2018-05-31T01:36:34.533Z,8.04672
2018-05-31T01:36:47.079Z,8.04672
2018-05-31T01:36:59.621Z,8.04672
2018-05-31T01:37:12.159Z,1.609344
2018-05-31T01:37:24.729Z,3.218688
2018-05-31T01:37:39.408Z,6.437376
2018-05-31T01:37:51.950Z,6.437376
2018-05-31T01:38:04.472Z,6.437376
2018-05-31T01:38:16.996Z,6.437376
2018-05-31T01:38:29.514Z,8.04672
2018-05-31T01:38:43.030Z,8.04672
2018-05-31T01:38:56.227Z,8.04672
2018-05-31T01:39:08.726Z,3.218688
2018-05-31T01:39:21.256Z,4.828032
2018-05-31T01:39:33.781Z,4.828032
2018-05-31T01:39:46.331Z,4.828032
2018-05-31T01:40:00.748Z,4.828032
2018-05-31T01:40:13.331Z,1.609344
2018-05-31T01:40:25.931Z,3.218688
2018-05-31T01:40:38.431Z,6.437376
2018-05-31T01:40:51.007Z,6.437376
2018-05-31T01:41:05.295Z,8.04672
2018-05-31T01:41:17.793Z,8.04672
2018-05-31T01:41:30.406Z,8.04672
2018-05-31T01:41:42.927Z,8.04672
2018-05-31T01:41:55.477Z,8.04672
2018-05-31T01:42:10.048Z,3.218688
2018-05-31T01:42:22.557Z,3.218688
2018-05-31T01:42:35.066Z,3.218688
2018-05-31T01:42:47.600Z,3.218688
2018-05-31T01:43:00.153Z,3.218688
2018-05-31T01:43:13.992Z,0
2018-05-31T01:43:26.954Z,1.609344
2018-05-31T01:43:39.504Z,1.609344
2018-05-31T01:43:52.079Z,1.609344
2018-05-31T01:44:04.604Z,3.218688
2018-05-31T01:44:17.250Z,4.828032
2018-05-31T01:44:31.061Z,4.828032
2018-05-31T01:44:43.620Z,6.437376
2018-05-31T01:44:56.146Z,6.437376
2018-05-31T01:45:08.692Z,3.218688
2018-05-31T01:45:21.214Z,3.218688
2018-05-31T01:45:35.766Z,3.218688
2018-05-31T01:45:48.355Z,3.218688
2018-05-31T01:46:00.893Z,3.218688
2018-05-31T01:46:13.568Z,1.609344
2018-05-31T01:46:26.081Z,1.609344
2018-05-31T01:46:40.102Z,1.609344
2018-05-31T01:46:52.671Z,1.609344
2018-05-31T01:47:05.245Z,0
2018-05-31T01:47:17.792Z,1.609344
2018-05-31T01:47:30.312Z,1.609344
2018-05-31T01:47:44.754Z,3.218688
2018-05-31T01:47:57.269Z,3.218688
2018-05-31T01:48:09.807Z,3.218688
2018-05-31T01:48:22.332Z,3.218688
2018-05-31T01:48:35.036Z,3.218688
2018-05-31T01:48:48.176Z,3.218688
2018-05-31T01:49:01.670Z,3.218688
2018-05-31T01:49:14.212Z,4.828032
2018-05-31T01:49:26.748Z,4.828032
2018-05-31T01:49:39.255Z,4.828032
2018-05-31T01:49:51.814Z,4.828032
2018-05-31T01:50:06.165Z,1.609344
2018-05-31T01:50:18.693Z,1.609344
2018-05-31T01:50:31.230Z,1.609344
2018-05-31T01:50:43.779Z,1.609344
2018-05-31T01:50:56.322Z,1.609344
2018-05-31T01:51:10.367Z,1.609344
2018-05-31T01:51:22.902Z,1.609344
2018-05-31T01:51:35.451Z,1.609344
2018-05-31T01:51:47.968Z,1.609344
2018-05-31T01:52:00.506Z,1.609344
2018-05-31T01:52:15.141Z,1.609344
2018-05-31T01:52:27.717Z,4.828032
2018-05-31T01:52:40.427Z,6.437376
2018-05-31T01:52:53.005Z,6.437376
2018-05-31T01:53:05.508Z,3.218688
2018-05-31T01:53:19.581Z,3.218688
2018-05-31T01:53:32.582Z,3.218688
2018-05-31T01:53:45.096Z,3.218688
2018-05-31T01:53:57.637Z,3.218688
2018-05-31T01:54:10.160Z,0
2018-05-31T01:54:23.105Z,1.609344
2018-05-31T01:54:37.105Z,1.609344
2018-05-31T01:54:49.768Z,1.609344
2018-05-31T01:55:02.287Z,1.609344
2018-05-31T01:55:14.827Z,0
2018-05-31T01:55:27.369Z,1.609344
2018-05-31T01:55:41.942Z,1.609344
2018-05-31T01:55:54.536Z,1.609344
2018-05-31T01:56:07.051Z,1.609344
2018-05-31T01:56:19.552Z,1.609344
2018-05-31T01:56:32.100Z,6.437376
2018-05-31T01:56:46.413Z,6.437376
2018-05-31T01:56:58.944Z,6.437376
2018-05-31T01:57:11.476Z,3.218688
2018-05-31T01:57:24.024Z,3.218688
2018-05-31T01:57:36.581Z,3.218688
2018-05-31T01:57:51.098Z,3.218688
2018-05-31T01:58:03.606Z,3.218688
2018-05-31T01:58:16.338Z,3.218688
2018-05-31T01:58:28.881Z,3.218688
2018-05-31T01:58:41.440Z,3.218688
2018-05-31T01:58:54.793Z,3.218688
2018-05-31T01:59:08.120Z,3.218688
2018-05-31T01:59:20.615Z,3.218688
2018-05-31T01:59:33.154Z,3.218688
2018-05-31T01:59:45.693Z,3.218688
2018-05-31T01:59:58.182Z,3.218688
2018-05-31T02:00:13.008Z,1.609344
2018-05-31T02:00:25.537Z,1.609344
2018-05-31T02:00:38.093Z,3.218688
2018-05-31T02:00:50.671Z,3.218688
2018-05-31T02:01:03.291Z,3.218688
2018-05-31T02:01:17.447Z,3.218688
2018-05-31T02:01:29.995Z,3.218688
2018-05-31T02:01:42.559Z,3.218688
2018-05-31T02:01:55.118Z,3.218688
2018-05-31T02:02:07.672Z,3.218688
2018-05-31T02:02:22.037Z,3.218688
2018-05-31T02:02:34.591Z,3.218688
2018-05-31T02:02:47.140Z,3.218688
2018-05-31T02:02:59.705Z,3.218688
2018-05-31T02:03:12.233Z,1.609344
2018-05-31T02:03:26.023Z,1.609344
2018-05-31T02:03:38.842Z,1.609344
2018-05-31T02:03:51.365Z,1.609344
2018-05-31T02:04:03.913Z,1.609344
2018-05-31T02:04:16.458Z,1.609344
2018-05-31T02:04:29.723Z,1.609344
2018-05-31T02:04:43.657Z,1.609344
2018-05-31T02:04:56.194Z,1.609344
2018-05-31T02:05:08.839Z,0
2018-05-31T02:05:21.405Z,0
2018-05-31T02:05:34.017Z,0
2018-05-31T02:05:48.427Z,0
2018-05-31T02:06:01.038Z,0
2018-05-31T02:06:13.565Z,0
2018-05-31T02:06:26.113Z,0
2018-05-31T02:06:38.629Z,1.609344
2018-05-31T02:06:53.079Z,1.609344
2018-05-31T02:07:05.660Z,1.609344
2018-05-31T02:07:18.218Z,1.609344
2018-05-31T02:07:30.759Z,1.609344
2018-05-31T02:07:43.272Z,1.609344
2018-05-31T02:07:58.475Z,1.609344
2018-05-31T02:08:11.069Z,1.609344
2018-05-31T02:08:23.631Z,3.218688
2018-05-31T02:08:36.209Z,3.218688
2018-05-31T02:08:48.748Z,3.218688
2018-05-31T02:09:02.993Z,3.218688
2018-05-31T02:09:15.863Z,1.609344
2018-05-31T02:09:28.447Z,1.609344
2018-05-31T02:09:40.983Z,1.609344
2018-05-31T02:09:53.505Z,1.609344
2018-05-31T02:10:06.431Z,1.609344
2018-05-31T02:10:20.495Z,1.609344
2018-05-31T02:10:33.180Z,1.609344
2018-05-31T02:10:45.715Z,1.609344
2018-05-31T02:10:58.294Z,3.218688
2018-05-31T02:11:10.842Z,1.609344
2018-05-31T02:11:25.013Z,1.609344
2018-05-31T02:11:37.522Z,1.609344
2018-05-31T02:11:50.074Z,1.609344
2018-05-31T02:12:02.600Z,1.609344
2018-05-31T02:12:15.105Z,1.609344
2018-05-31T02:12:29.809Z,1.609344
2018-05-31T02:12:42.383Z,1.609344
2018-05-31T02:12:54.925Z,1.609344
2018-05-31T02:13:07.468Z,1.609344
2018-05-31T02:13:20.006Z,1.609344
2018-05-31T02:13:34.081Z,1.609344
2018-05-31T02:13:46.653Z,1.609344
2018-05-31T02:13:59.163Z,1.609344
2018-05-31T02:14:11.777Z,0
2018-05-31T02:14:24.297Z,1.609344
2018-05-31T02:14:37.999Z,1.609344
2018-05-31T02:14:51.557Z,1.609344
2018-05-31T02:15:04.154Z,0
2018-05-31T02:15:16.700Z,0
2018-05-31T02:15:29.230Z,0
2018-05-31T02:15:41.882Z,0
2018-05-31T02:15:56.089Z,0
2018-05-31T02:16:08.640Z,0
2018-05-31T02:16:21.167Z,0
2018-05-31T02:16:33.718Z,0
2018-05-31T02:16:46.285Z,0
2018-05-31T02:17:00.686Z,1.609344
2018-05-31T02:17:13.238Z,1.609344
2018-05-31T02:17:25.743Z,1.609344
2018-05-31T02:17:38.298Z,1.609344
2018-05-31T02:17:50.861Z,1.609344
2018-05-31T02:18:05.220Z,0
2018-05-31T02:18:17.918Z,0
2018-05-31T02:18:30.467Z,1.609344
2018-05-31T02:18:43.011Z,1.609344
2018-05-31T02:18:55.573Z,1.609344
2018-05-31T02:19:09.845Z,1.609344
2018-05-31T02:19:22.684Z,1.609344
2018-05-31T02:19:35.208Z,1.609344
2018-05-31T02:19:47.755Z,1.609344
2018-05-31T02:20:00.304Z,1.609344
2018-05-31T02:20:13.442Z,0
2018-05-31T02:20:27.395Z,1.609344
2018-05-31T02:20:40.001Z,1.609344
2018-05-31T02:20:52.540Z,1.609344
2018-05-31T02:21:05.067Z,0
2018-05-31T02:21:17.789Z,0
2018-05-31T02:21:31.992Z,0
2018-05-31T02:21:44.477Z,0
2018-05-31T02:21:57.046Z,0
2018-05-31T02:22:09.590Z,0
2018-05-31T02:22:22.135Z,1.609344
2018-05-31T02:22:36.671Z,3.218688
2018-05-31T02:22:49.242Z,3.218688
2018-05-31T02:23:01.799Z,3.218688
2018-05-31T02:23:14.327Z,0
2018-05-31T02:23:26.859Z,0
2018-05-31T02:23:41.411Z,0
2018-05-31T02:23:53.944Z,0
2018-05-31T02:24:06.480Z,0
2018-05-31T02:24:19.032Z,0
2018-05-31T02:24:31.593Z,0
2018-05-31T02:24:45.513Z,1.609344
2018-05-31T02:24:58.575Z,1.609344
2018-05-31T02:25:11.104Z,1.609344
2018-05-31T02:25:23.634Z,1.609344
2018-05-31T02:25:36.200Z,1.609344
2018-05-31T02:25:48.728Z,1.609344
2018-05-31T02:26:03.058Z,1.609344
2018-05-31T02:26:15.741Z,0
2018-05-31T02:26:28.302Z,0
2018-05-31T02:26:40.816Z,0
2018-05-31T02:26:53.358Z,0
2018-05-31T02:27:07.906Z,0
2018-05-31T02:27:20.428Z,0
2018-05-31T02:27:32.961Z,0
2018-05-31T02:27:45.507Z,0
2018-05-31T02:27:58.050Z,0
2018-05-31T02:28:12.546Z,0
2018-05-31T02:28:25.115Z,0
2018-05-31T02:28:37.714Z,0
2018-05-31T02:28:50.236Z,0
2018-05-31T02:29:02.753Z,0
2018-05-31T02:29:16.998Z,0
2018-05-31T02:29:29.704Z,0
2018-05-31T02:29:42.273Z,0
2018-05-31T02:29:54.807Z,6.437376
2018-05-31T02:30:07.398Z,4.828032
2018-05-31T02:30:20.544Z,6.437376
2018-05-31T02:30:34.590Z,6.437376
2018-05-31T02:30:47.226Z,6.437376
2018-05-31T02:30:59.909Z,6.437376
2018-05-31T02:31:12.646Z,0
2018-05-31T02:31:25.441Z,0
2018-05-31T02:31:40.017Z,0
2018-05-31T02:31:52.541Z,0
2018-05-31T02:32:05.035Z,0
2018-05-31T02:32:17.540Z,0
2018-05-31T02:32:30.080Z,0
2018-05-31T02:32:44.582Z,0
2018-05-31T02:32:57.111Z,0
2018-05-31T02:33:09.664Z,0
2018-05-31T02:33:22.189Z,0
2018-05-31T02:33:34.683Z,0
2018-05-31T02:33:49.005Z,0
2018-05-31T02:34:01.513Z,0
2018-05-31T02:34:14.090Z,0
2018-05-31T02:34:26.616Z,0
2018-05-31T02:34:39.155Z,0
2018-05-31T02:34:52.766Z,0
2018-05-31T02:35:06.191Z,0
2018-05-31T02:35:18.716Z,0
2018-05-31T02:35:31.263Z,0
2018-05-31T02:35:43.780Z,0
2018-05-31T02:35:56.276Z,0
2018-05-31T02:36:10.549Z,0